sensor_id;sensor_type;location;lat;lon;timestamp;P1;durP1;ratioP1;P2;durP2;ratioP2
4597;SDS011;62772;48.646;8.906;2023-09-08T00:02:35;17.73;;;8.10;;
4597;SDS011;62772;48.646;8.906;2023-09-08T00:07:35;12.70;;;7.70;;
4597;SDS011;62772;48.646;8.906;2023-09-08T00:12:38;13.93;;;8.07;;
4597;SDS011;62772;48.646;8.906;2023-09-08T00:17:39;11.67;;;8.10;;
4597;SDS011;62772;48.646;8.906;2023-09-08T00:22:39;11.57;;;7.43;;
4597;SDS011;62772;48.646;8.906;2023-09-08T00:27:40;10.43;;;7.30;;
4597;SDS011;62772;48.646;8.906;2023-09-08T00:32:41;11.83;;;7.53;;
4597;SDS011;62772;48.646;8.906;2023-09-08T00:37:41;12.73;;;8.30;;
4597;SDS011;62772;48.646;8.906;2023-09-08T00:42:42;12.10;;;8.27;;
4597;SDS011;62772;48.646;8.906;2023-09-08T00:47:42;11.23;;;8.03;;
4597;SDS011;62772;48.646;8.906;2023-09-08T00:52:42;11.30;;;7.73;;
4597;SDS011;62772;48.646;8.906;2023-09-08T00:57:43;13.67;;;8.10;;
4597;SDS011;62772;48.646;8.906;2023-09-08T01:02:43;12.20;;;7.73;;
4597;SDS011;62772;48.646;8.906;2023-09-08T01:07:45;14.20;;;8.07;;
4597;SDS011;62772;48.646;8.906;2023-09-08T01:12:46;12.00;;;8.50;;
4597;SDS011;62772;48.646;8.906;2023-09-08T01:17:47;13.47;;;8.90;;
4597;SDS011;62772;48.646;8.906;2023-09-08T01:28:00;10.47;;;7.23;;
4597;SDS011;62772;48.646;8.906;2023-09-08T01:33:02;13.03;;;7.83;;
4597;SDS011;62772;48.646;8.906;2023-09-08T01:38:03;11.47;;;7.37;;
4597;SDS011;62772;48.646;8.906;2023-09-08T01:43:05;15.93;;;8.50;;
4597;SDS011;62772;48.646;8.906;2023-09-08T01:48:06;12.83;;;8.80;;
4597;SDS011;62772;48.646;8.906;2023-09-08T01:53:06;11.80;;;8.33;;
4597;SDS011;62772;48.646;8.906;2023-09-08T01:58:07;13.70;;;8.17;;
4597;SDS011;62772;48.646;8.906;2023-09-08T02:03:07;12.47;;;8.07;;
4597;SDS011;62772;48.646;8.906;2023-09-08T02:08:08;18.57;;;8.37;;
4597;SDS011;62772;48.646;8.906;2023-09-08T02:13:08;11.53;;;8.10;;
4597;SDS011;62772;48.646;8.906;2023-09-08T02:18:10;10.20;;;7.60;;
4597;SDS011;62772;48.646;8.906;2023-09-08T02:23:14;14.03;;;8.40;;
4597;SDS011;62772;48.646;8.906;2023-09-08T02:28:14;13.30;;;8.70;;
4597;SDS011;62772;48.646;8.906;2023-09-08T02:33:15;12.60;;;8.40;;
4597;SDS011;62772;48.646;8.906;2023-09-08T02:38:16;12.13;;;8.43;;
4597;SDS011;62772;48.646;8.906;2023-09-08T02:43:16;11.13;;;7.87;;
4597;SDS011;62772;48.646;8.906;2023-09-08T02:48:17;13.53;;;8.63;;
4597;SDS011;62772;48.646;8.906;2023-09-08T02:53:17;13.07;;;9.20;;
4597;SDS011;62772;48.646;8.906;2023-09-08T02:58:18;12.90;;;8.70;;
4597;SDS011;62772;48.646;8.906;2023-09-08T03:03:21;12.57;;;8.87;;
4597;SDS011;62772;48.646;8.906;2023-09-08T03:08:23;16.13;;;8.87;;
4597;SDS011;62772;48.646;8.906;2023-09-08T03:13:24;16.73;;;9.40;;
4597;SDS011;62772;48.646;8.906;2023-09-08T03:18:26;13.20;;;8.47;;
4597;SDS011;62772;48.646;8.906;2023-09-08T03:23:26;12.90;;;8.27;;
4597;SDS011;62772;48.646;8.906;2023-09-08T03:28:27;11.07;;;7.80;;
4597;SDS011;62772;48.646;8.906;2023-09-08T03:33:27;13.37;;;7.73;;
4597;SDS011;62772;48.646;8.906;2023-09-08T03:38:28;12.00;;;8.63;;
4597;SDS011;62772;48.646;8.906;2023-09-08T03:43:29;13.27;;;8.60;;
4597;SDS011;62772;48.646;8.906;2023-09-08T03:48:29;12.70;;;8.97;;
4597;SDS011;62772;48.646;8.906;2023-09-08T03:53:30;14.00;;;9.17;;
4597;SDS011;62772;48.646;8.906;2023-09-08T03:58:31;11.77;;;8.30;;
4597;SDS011;62772;48.646;8.906;2023-09-08T04:03:32;11.73;;;8.03;;
4597;SDS011;62772;48.646;8.906;2023-09-08T04:08:32;12.83;;;8.20;;
4597;SDS011;62772;48.646;8.906;2023-09-08T04:13:33;13.07;;;7.80;;
4597;SDS011;62772;48.646;8.906;2023-09-08T04:18:34;14.67;;;8.40;;
4597;SDS011;62772;48.646;8.906;2023-09-08T04:23:34;11.80;;;8.30;;
4597;SDS011;62772;48.646;8.906;2023-09-08T04:28:35;12.40;;;8.80;;
4597;SDS011;62772;48.646;8.906;2023-09-08T04:33:35;12.17;;;8.90;;
4597;SDS011;62772;48.646;8.906;2023-09-08T04:38:37;12.67;;;9.03;;
4597;SDS011;62772;48.646;8.906;2023-09-08T04:43:38;14.70;;;8.63;;
4597;SDS011;62772;48.646;8.906;2023-09-08T04:48:39;13.20;;;9.40;;
4597;SDS011;62772;48.646;8.906;2023-09-08T04:53:39;12.50;;;8.27;;
4597;SDS011;62772;48.646;8.906;2023-09-08T04:58:40;12.13;;;8.30;;
4597;SDS011;62772;48.646;8.906;2023-09-08T05:03:41;14.33;;;9.37;;
4597;SDS011;62772;48.646;8.906;2023-09-08T05:08:42;13.97;;;9.37;;
4597;SDS011;62772;48.646;8.906;2023-09-08T05:13:44;14.03;;;9.17;;
4597;SDS011;62772;48.646;8.906;2023-09-08T05:18:46;16.93;;;8.10;;
4597;SDS011;62772;48.646;8.906;2023-09-08T05:23:47;12.80;;;9.07;;
4597;SDS011;62772;48.646;8.906;2023-09-08T05:28:51;16.87;;;8.93;;
4597;SDS011;62772;48.646;8.906;2023-09-08T05:33:52;13.87;;;8.97;;
4597;SDS011;62772;48.646;8.906;2023-09-08T05:38:54;11.80;;;8.40;;
4597;SDS011;62772;48.646;8.906;2023-09-08T05:43:55;13.60;;;9.03;;
4597;SDS011;62772;48.646;8.906;2023-09-08T05:48:56;12.33;;;8.43;;
4597;SDS011;62772;48.646;8.906;2023-09-08T05:53:57;14.37;;;9.20;;
4597;SDS011;62772;48.646;8.906;2023-09-08T05:58:57;14.10;;;9.70;;
4597;SDS011;62772;48.646;8.906;2023-09-08T06:03:58;15.53;;;10.23;;
4597;SDS011;62772;48.646;8.906;2023-09-08T06:09:01;15.27;;;10.57;;
4597;SDS011;62772;48.646;8.906;2023-09-08T06:14:03;17.10;;;10.97;;
4597;SDS011;62772;48.646;8.906;2023-09-08T06:19:11;15.73;;;10.50;;
4597;SDS011;62772;48.646;8.906;2023-09-08T06:24:12;19.73;;;11.33;;
4597;SDS011;62772;48.646;8.906;2023-09-08T06:29:13;16.73;;;10.23;;
4597;SDS011;62772;48.646;8.906;2023-09-08T06:34:14;17.40;;;11.63;;
4597;SDS011;62772;48.646;8.906;2023-09-08T06:39:15;23.27;;;15.10;;
4597;SDS011;62772;48.646;8.906;2023-09-08T06:44:15;25.57;;;15.43;;
4597;SDS011;62772;48.646;8.906;2023-09-08T06:49:16;27.57;;;16.23;;
4597;SDS011;62772;48.646;8.906;2023-09-08T06:54:18;23.63;;;15.50;;
4597;SDS011;62772;48.646;8.906;2023-09-08T06:59:20;25.00;;;15.93;;
4597;SDS011;62772;48.646;8.906;2023-09-08T07:04:21;26.50;;;16.33;;
4597;SDS011;62772;48.646;8.906;2023-09-08T07:09:22;24.63;;;16.73;;
4597;SDS011;62772;48.646;8.906;2023-09-08T07:14:22;22.43;;;14.87;;
4597;SDS011;62772;48.646;8.906;2023-09-08T07:19:25;22.53;;;15.10;;
4597;SDS011;62772;48.646;8.906;2023-09-08T07:24:26;22.23;;;14.87;;
4597;SDS011;62772;48.646;8.906;2023-09-08T07:29:27;22.20;;;16.07;;
4597;SDS011;62772;48.646;8.906;2023-09-08T07:34:27;20.60;;;14.10;;
4597;SDS011;62772;48.646;8.906;2023-09-08T07:39:28;22.00;;;15.10;;
4597;SDS011;62772;48.646;8.906;2023-09-08T07:44:30;20.87;;;13.67;;
4597;SDS011;62772;48.646;8.906;2023-09-08T07:49:33;22.40;;;14.50;;
4597;SDS011;62772;48.646;8.906;2023-09-08T07:54:34;20.60;;;14.13;;
4597;SDS011;62772;48.646;8.906;2023-09-08T07:59:34;20.17;;;12.60;;
4597;SDS011;62772;48.646;8.906;2023-09-08T08:04:35;28.47;;;12.60;;
4597;SDS011;62772;48.646;8.906;2023-09-08T08:09:35;17.73;;;11.40;;
4597;SDS011;62772;48.646;8.906;2023-09-08T08:14:36;19.13;;;11.93;;
4597;SDS011;62772;48.646;8.906;2023-09-08T08:19:36;18.03;;;12.13;;
4597;SDS011;62772;48.646;8.906;2023-09-08T08:24:37;17.70;;;12.77;;
4597;SDS011;62772;48.646;8.906;2023-09-08T08:29:38;22.87;;;11.63;;
4597;SDS011;62772;48.646;8.906;2023-09-08T08:34:39;16.17;;;10.77;;
4597;SDS011;62772;48.646;8.906;2023-09-08T08:39:40;17.40;;;10.97;;
4597;SDS011;62772;48.646;8.906;2023-09-08T08:44:40;17.33;;;10.20;;
4597;SDS011;62772;48.646;8.906;2023-09-08T08:49:43;16.83;;;10.60;;
4597;SDS011;62772;48.646;8.906;2023-09-08T08:54:46;14.93;;;10.30;;
4597;SDS011;62772;48.646;8.906;2023-09-08T08:59:47;15.80;;;10.40;;
4597;SDS011;62772;48.646;8.906;2023-09-08T09:04:49;13.50;;;10.27;;
4597;SDS011;62772;48.646;8.906;2023-09-08T09:09:51;16.03;;;10.30;;
4597;SDS011;62772;48.646;8.906;2023-09-08T09:14:55;12.70;;;9.70;;
4597;SDS011;62772;48.646;8.906;2023-09-08T09:20:14;18.57;;;9.97;;
4597;SDS011;62772;48.646;8.906;2023-09-08T09:25:24;15.10;;;9.97;;
4597;SDS011;62772;48.646;8.906;2023-09-08T09:30:26;13.70;;;9.87;;
4597;SDS011;62772;48.646;8.906;2023-09-08T09:35:41;20.80;;;10.60;;
4597;SDS011;62772;48.646;8.906;2023-09-08T09:40:46;14.90;;;9.10;;
4597;SDS011;62772;48.646;8.906;2023-09-08T09:45:47;20.33;;;9.40;;
4597;SDS011;62772;48.646;8.906;2023-09-08T09:50:47;12.80;;;8.73;;
4597;SDS011;62772;48.646;8.906;2023-09-08T09:55:49;15.40;;;9.23;;
4597;SDS011;62772;48.646;8.906;2023-09-08T10:00:50;15.67;;;9.03;;
4597;SDS011;62772;48.646;8.906;2023-09-08T10:05:51;12.10;;;8.77;;
4597;SDS011;62772;48.646;8.906;2023-09-08T10:10:52;13.90;;;9.20;;
4597;SDS011;62772;48.646;8.906;2023-09-08T10:15:57;17.23;;;9.63;;
4597;SDS011;62772;48.646;8.906;2023-09-08T10:20:59;15.30;;;9.73;;
4597;SDS011;62772;48.646;8.906;2023-09-08T10:26:05;13.40;;;9.37;;
4597;SDS011;62772;48.646;8.906;2023-09-08T10:31:09;14.30;;;9.40;;
4597;SDS011;62772;48.646;8.906;2023-09-08T10:36:10;12.83;;;8.67;;
4597;SDS011;62772;48.646;8.906;2023-09-08T10:46:26;10.83;;;8.20;;
4597;SDS011;62772;48.646;8.906;2023-09-08T10:51:27;11.80;;;8.70;;
4597;SDS011;62772;48.646;8.906;2023-09-08T10:56:29;15.15;;;9.00;;
4597;SDS011;62772;48.646;8.906;2023-09-08T11:01:51;18.53;;;8.57;;
4597;SDS011;62772;48.646;8.906;2023-09-08T11:06:55;12.37;;;8.70;;
4597;SDS011;62772;48.646;8.906;2023-09-08T11:11:56;12.10;;;7.40;;
4597;SDS011;62772;48.646;8.906;2023-09-08T11:17:03;11.45;;;8.32;;
4597;SDS011;62772;48.646;8.906;2023-09-08T11:22:03;11.18;;;8.02;;
4597;SDS011;62772;48.646;8.906;2023-09-08T11:27:05;10.95;;;7.30;;
4597;SDS011;62772;48.646;8.906;2023-09-08T11:32:06;14.45;;;7.95;;
4597;SDS011;62772;48.646;8.906;2023-09-08T11:37:10;12.45;;;8.23;;
4597;SDS011;62772;48.646;8.906;2023-09-08T11:42:14;11.75;;;7.95;;
4597;SDS011;62772;48.646;8.906;2023-09-08T11:47:15;10.82;;;8.07;;
4597;SDS011;62772;48.646;8.906;2023-09-08T11:52:16;10.45;;;6.95;;
4597;SDS011;62772;48.646;8.906;2023-09-08T11:57:17;15.60;;;7.63;;
4597;SDS011;62772;48.646;8.906;2023-09-08T12:02:18;10.30;;;7.05;;
4597;SDS011;62772;48.646;8.906;2023-09-08T12:07:19;10.40;;;7.05;;
4597;SDS011;62772;48.646;8.906;2023-09-08T12:12:20;13.93;;;8.98;;
4597;SDS011;62772;48.646;8.906;2023-09-08T12:17:21;14.77;;;7.00;;
4597;SDS011;62772;48.646;8.906;2023-09-08T12:22:24;8.68;;;6.60;;
4597;SDS011;62772;48.646;8.906;2023-09-08T12:27:25;11.55;;;7.15;;
4597;SDS011;62772;48.646;8.906;2023-09-08T12:32:28;10.45;;;7.30;;
4597;SDS011;62772;48.646;8.906;2023-09-08T12:37:32;14.75;;;6.88;;
4597;SDS011;62772;48.646;8.906;2023-09-08T12:42:35;11.15;;;7.78;;
4597;SDS011;62772;48.646;8.906;2023-09-08T12:47:37;9.85;;;7.25;;
4597;SDS011;62772;48.646;8.906;2023-09-08T12:52:41;11.18;;;7.80;;
4597;SDS011;62772;48.646;8.906;2023-09-08T12:57:45;10.45;;;8.00;;
4597;SDS011;62772;48.646;8.906;2023-09-08T13:02:47;11.02;;;7.85;;
4597;SDS011;62772;48.646;8.906;2023-09-08T13:07:47;12.85;;;7.90;;
4597;SDS011;62772;48.646;8.906;2023-09-08T13:12:49;12.00;;;8.23;;
4597;SDS011;62772;48.646;8.906;2023-09-08T13:17:50;14.10;;;8.15;;
4597;SDS011;62772;48.646;8.906;2023-09-08T13:22:51;11.18;;;7.90;;
4597;SDS011;62772;48.646;8.906;2023-09-08T13:27:52;13.45;;;8.20;;
4597;SDS011;62772;48.646;8.906;2023-09-08T13:32:53;16.20;;;7.90;;
4597;SDS011;62772;48.646;8.906;2023-09-08T13:37:53;12.32;;;8.48;;
4597;SDS011;62772;48.646;8.906;2023-09-08T13:42:54;12.43;;;7.57;;
4597;SDS011;62772;48.646;8.906;2023-09-08T13:47:54;12.95;;;7.32;;
4597;SDS011;62772;48.646;8.906;2023-09-08T13:52:55;10.88;;;7.70;;
4597;SDS011;62772;48.646;8.906;2023-09-08T13:57:55;13.63;;;8.02;;
4597;SDS011;62772;48.646;8.906;2023-09-08T14:02:56;10.68;;;7.63;;
4597;SDS011;62772;48.646;8.906;2023-09-08T14:07:56;11.65;;;6.80;;
4597;SDS011;62772;48.646;8.906;2023-09-08T14:12:57;13.70;;;7.35;;
4597;SDS011;62772;48.646;8.906;2023-09-08T14:17:58;14.65;;;8.38;;
4597;SDS011;62772;48.646;8.906;2023-09-08T14:22:58;12.77;;;8.52;;
4597;SDS011;62772;48.646;8.906;2023-09-08T14:27:59;11.70;;;8.13;;
4597;SDS011;62772;48.646;8.906;2023-09-08T14:33:03;13.98;;;8.10;;
4597;SDS011;62772;48.646;8.906;2023-09-08T14:38:07;10.77;;;7.53;;
4597;SDS011;62772;48.646;8.906;2023-09-08T14:43:08;12.50;;;7.80;;
4597;SDS011;62772;48.646;8.906;2023-09-08T14:48:08;12.10;;;7.50;;
4597;SDS011;62772;48.646;8.906;2023-09-08T14:53:09;12.20;;;8.10;;
4597;SDS011;62772;48.646;8.906;2023-09-08T14:58:10;14.88;;;8.38;;
4597;SDS011;62772;48.646;8.906;2023-09-08T15:03:12;10.52;;;8.15;;
4597;SDS011;62772;48.646;8.906;2023-09-08T15:08:12;12.18;;;8.07;;
4597;SDS011;62772;48.646;8.906;2023-09-08T15:13:13;15.75;;;8.07;;
4597;SDS011;62772;48.646;8.906;2023-09-08T15:18:13;12.63;;;8.18;;
4597;SDS011;62772;48.646;8.906;2023-09-08T15:23:14;11.10;;;7.80;;
4597;SDS011;62772;48.646;8.906;2023-09-08T15:28:14;11.27;;;7.13;;
4597;SDS011;62772;48.646;8.906;2023-09-08T15:33:15;14.27;;;8.32;;
4597;SDS011;62772;48.646;8.906;2023-09-08T15:38:15;13.07;;;8.15;;
4597;SDS011;62772;48.646;8.906;2023-09-08T15:43:18;10.15;;;7.35;;
4597;SDS011;62772;48.646;8.906;2023-09-08T15:48:18;13.32;;;7.40;;
4597;SDS011;62772;48.646;8.906;2023-09-08T15:53:18;12.85;;;7.43;;
4597;SDS011;62772;48.646;8.906;2023-09-08T15:58:19;18.02;;;7.80;;
4597;SDS011;62772;48.646;8.906;2023-09-08T16:03:19;13.63;;;8.13;;
4597;SDS011;62772;48.646;8.906;2023-09-08T16:08:20;16.42;;;8.52;;
4597;SDS011;62772;48.646;8.906;2023-09-08T16:13:20;14.65;;;7.85;;
4597;SDS011;62772;48.646;8.906;2023-09-08T16:18:21;12.95;;;8.70;;
4597;SDS011;62772;48.646;8.906;2023-09-08T16:23:21;14.73;;;8.00;;
4597;SDS011;62772;48.646;8.906;2023-09-08T16:28:22;10.90;;;6.63;;
4597;SDS011;62772;48.646;8.906;2023-09-08T16:33:23;11.05;;;7.93;;
4597;SDS011;62772;48.646;8.906;2023-09-08T16:38:23;10.55;;;7.15;;
4597;SDS011;62772;48.646;8.906;2023-09-08T16:43:24;10.07;;;7.03;;
4597;SDS011;62772;48.646;8.906;2023-09-08T16:48:24;9.80;;;6.60;;
4597;SDS011;62772;48.646;8.906;2023-09-08T16:53:25;8.80;;;7.03;;
4597;SDS011;62772;48.646;8.906;2023-09-08T16:58:25;11.25;;;7.68;;
4597;SDS011;62772;48.646;8.906;2023-09-08T17:03:26;9.55;;;6.80;;
4597;SDS011;62772;48.646;8.906;2023-09-08T17:08:26;13.38;;;7.00;;
4597;SDS011;62772;48.646;8.906;2023-09-08T17:13:27;14.23;;;7.22;;
4597;SDS011;62772;48.646;8.906;2023-09-08T17:18:28;9.52;;;7.07;;
4597;SDS011;62772;48.646;8.906;2023-09-08T17:23:28;11.15;;;7.30;;
4597;SDS011;62772;48.646;8.906;2023-09-08T17:28:30;11.05;;;7.40;;
4597;SDS011;62772;48.646;8.906;2023-09-08T17:33:30;12.20;;;7.90;;
4597;SDS011;62772;48.646;8.906;2023-09-08T17:38:31;12.43;;;8.05;;
4597;SDS011;62772;48.646;8.906;2023-09-08T17:43:32;13.23;;;7.68;;
4597;SDS011;62772;48.646;8.906;2023-09-08T17:48:32;10.55;;;7.43;;
4597;SDS011;62772;48.646;8.906;2023-09-08T17:53:33;11.20;;;7.30;;
4597;SDS011;62772;48.646;8.906;2023-09-08T17:58:35;10.48;;;7.50;;
4597;SDS011;62772;48.646;8.906;2023-09-08T18:03:35;14.15;;;8.27;;
4597;SDS011;62772;48.646;8.906;2023-09-08T18:08:36;11.80;;;7.07;;
4597;SDS011;62772;48.646;8.906;2023-09-08T18:13:37;10.93;;;7.50;;
4597;SDS011;62772;48.646;8.906;2023-09-08T18:18:38;10.38;;;7.38;;
4597;SDS011;62772;48.646;8.906;2023-09-08T18:23:38;10.32;;;7.57;;
4597;SDS011;62772;48.646;8.906;2023-09-08T18:28:40;12.38;;;7.93;;
4597;SDS011;62772;48.646;8.906;2023-09-08T18:33:40;17.13;;;10.17;;
4597;SDS011;62772;48.646;8.906;2023-09-08T18:38:41;14.95;;;10.52;;
4597;SDS011;62772;48.646;8.906;2023-09-08T18:43:41;16.40;;;9.93;;
4597;SDS011;62772;48.646;8.906;2023-09-08T18:48:42;15.30;;;10.63;;
4597;SDS011;62772;48.646;8.906;2023-09-08T18:53:42;15.63;;;10.40;;
4597;SDS011;62772;48.646;8.906;2023-09-08T18:58:43;15.50;;;10.90;;
4597;SDS011;62772;48.646;8.906;2023-09-08T19:03:44;15.23;;;9.97;;
4597;SDS011;62772;48.646;8.906;2023-09-08T19:08:44;14.60;;;10.00;;
4597;SDS011;62772;48.646;8.906;2023-09-08T19:13:45;14.00;;;10.30;;
4597;SDS011;62772;48.646;8.906;2023-09-08T19:18:45;15.60;;;10.33;;
4597;SDS011;62772;48.646;8.906;2023-09-08T19:23:46;12.80;;;9.63;;
4597;SDS011;62772;48.646;8.906;2023-09-08T19:28:47;13.83;;;9.40;;
4597;SDS011;62772;48.646;8.906;2023-09-08T19:33:47;14.70;;;10.53;;
4597;SDS011;62772;48.646;8.906;2023-09-08T19:38:48;15.17;;;10.37;;
4597;SDS011;62772;48.646;8.906;2023-09-08T19:43:48;14.20;;;10.77;;
4597;SDS011;62772;48.646;8.906;2023-09-08T19:48:49;16.27;;;9.67;;
4597;SDS011;62772;48.646;8.906;2023-09-08T19:53:49;16.40;;;9.70;;
4597;SDS011;62772;48.646;8.906;2023-09-08T19:58:50;13.50;;;9.40;;
4597;SDS011;62772;48.646;8.906;2023-09-08T20:03:51;13.73;;;9.37;;
4597;SDS011;62772;48.646;8.906;2023-09-08T20:08:51;18.20;;;10.10;;
4597;SDS011;62772;48.646;8.906;2023-09-08T20:13:51;21.33;;;12.30;;
4597;SDS011;62772;48.646;8.906;2023-09-08T20:18:54;15.70;;;10.63;;
4597;SDS011;62772;48.646;8.906;2023-09-08T20:23:54;14.60;;;10.13;;
4597;SDS011;62772;48.646;8.906;2023-09-08T20:28:55;15.10;;;9.17;;
4597;SDS011;62772;48.646;8.906;2023-09-08T20:33:56;14.90;;;9.50;;
4597;SDS011;62772;48.646;8.906;2023-09-08T20:38:56;15.40;;;10.60;;
4597;SDS011;62772;48.646;8.906;2023-09-08T20:43:57;14.13;;;9.80;;
4597;SDS011;62772;48.646;8.906;2023-09-08T20:48:57;16.57;;;9.70;;
4597;SDS011;62772;48.646;8.906;2023-09-08T20:53:58;19.43;;;11.20;;
4597;SDS011;62772;48.646;8.906;2023-09-08T20:58:58;14.67;;;10.17;;
4597;SDS011;62772;48.646;8.906;2023-09-08T21:03:58;15.00;;;10.03;;
4597;SDS011;62772;48.646;8.906;2023-09-08T21:08:59;15.37;;;9.50;;
4597;SDS011;62772;48.646;8.906;2023-09-08T21:13:59;13.93;;;9.77;;
4597;SDS011;62772;48.646;8.906;2023-09-08T21:19:00;14.87;;;9.80;;
4597;SDS011;62772;48.646;8.906;2023-09-08T21:24:01;13.57;;;9.40;;
4597;SDS011;62772;48.646;8.906;2023-09-08T21:29:01;14.77;;;9.50;;
4597;SDS011;62772;48.646;8.906;2023-09-08T21:34:02;14.20;;;9.87;;
4597;SDS011;62772;48.646;8.906;2023-09-08T21:39:02;18.43;;;12.40;;
4597;SDS011;62772;48.646;8.906;2023-09-08T21:44:03;15.97;;;10.47;;
4597;SDS011;62772;48.646;8.906;2023-09-08T21:49:04;25.53;;;12.30;;
4597;SDS011;62772;48.646;8.906;2023-09-08T21:54:04;21.53;;;12.17;;
4597;SDS011;62772;48.646;8.906;2023-09-08T21:59:05;16.40;;;10.00;;
4597;SDS011;62772;48.646;8.906;2023-09-08T22:04:05;14.93;;;10.23;;
4597;SDS011;62772;48.646;8.906;2023-09-08T22:09:05;14.90;;;10.10;;
4597;SDS011;62772;48.646;8.906;2023-09-08T22:14:06;16.97;;;11.10;;
4597;SDS011;62772;48.646;8.906;2023-09-08T22:19:07;24.80;;;11.07;;
4597;SDS011;62772;48.646;8.906;2023-09-08T22:24:12;13.63;;;10.23;;
4597;SDS011;62772;48.646;8.906;2023-09-08T22:29:12;15.90;;;9.60;;
4597;SDS011;62772;48.646;8.906;2023-09-08T22:34:12;13.57;;;9.73;;
4597;SDS011;62772;48.646;8.906;2023-09-08T22:39:13;15.33;;;9.73;;
4597;SDS011;62772;48.646;8.906;2023-09-08T22:44:13;13.97;;;9.70;;
4597;SDS011;62772;48.646;8.906;2023-09-08T22:49:14;13.90;;;9.30;;
4597;SDS011;62772;48.646;8.906;2023-09-08T22:54:14;22.07;;;10.50;;
4597;SDS011;62772;48.646;8.906;2023-09-08T22:59:15;18.77;;;12.97;;
4597;SDS011;62772;48.646;8.906;2023-09-08T23:04:16;14.77;;;10.37;;
4597;SDS011;62772;48.646;8.906;2023-09-08T23:09:16;23.20;;;15.20;;
4597;SDS011;62772;48.646;8.906;2023-09-08T23:14:17;12.50;;;9.33;;
4597;SDS011;62772;48.646;8.906;2023-09-08T23:19:17;16.20;;;9.70;;
4597;SDS011;62772;48.646;8.906;2023-09-08T23:24:17;16.23;;;10.23;;
4597;SDS011;62772;48.646;8.906;2023-09-08T23:29:19;15.13;;;10.73;;
4597;SDS011;62772;48.646;8.906;2023-09-08T23:34:19;17.40;;;10.97;;
4597;SDS011;62772;48.646;8.906;2023-09-08T23:39:19;15.03;;;9.83;;
4597;SDS011;62772;48.646;8.906;2023-09-08T23:44:20;17.60;;;9.90;;
4597;SDS011;62772;48.646;8.906;2023-09-08T23:49:22;14.07;;;10.47;;
4597;SDS011;62772;48.646;8.906;2023-09-08T23:54:23;15.87;;;10.87;;
4597;SDS011;62772;48.646;8.906;2023-09-08T23:59:23;16.30;;;11.47;;
